Overview Statistics Trail Chart Weather Telemetry Raw packets
 

This is the latest recevied weather packets stored in our database for station/object K4IR. If no packets are shown the sender has not sent any weather packets the latest 10 day(s).

<< 15 16 17 18 19 20 21 >>
Time Temp. Humidity Pressure Rain* Wind** Luminosity Snow
1788390902 27.78° C 85% 1017.6 hPa 0 mm - 14 W/m² -
1788390297 28.33° C 83% 1017.6 hPa 0 mm - 21 W/m² -
1788389697 28.89° C 81% 1017.6 hPa 0 mm - 28 W/m² -
1788389096 28.89° C 79% 1017.5 hPa 0 mm - 34 W/m² -
1788388494 29.44° C 76% 1017.7 hPa 0 mm - 39 W/m² -
1788387892 30° C 75% 1017.7 hPa 0 mm - 44 W/m² -
1788387291 30.56° C 73% 1017.3 hPa 0 mm - 87 W/m² -
1788386687 31.11° C 71% 1017.3 hPa 0 mm - 110 W/m² -
1788386084 31.67° C 70% 1017.4 hPa 0 mm - 135 W/m² -
1788385478 32.22° C 70% 1017.1 hPa 0 mm - 160 W/m² -
1788384875 32.22° C 67% 1017.2 hPa 0 mm - 188 W/m² -
1788384269 32.22° C 68% 1017.4 hPa 0 mm - 216 W/m² -
1788383667 32.22° C 69% 1017.5 hPa 0 mm - 245 W/m² -
1788383062 32.22° C 66% 1017.5 hPa 0 mm - 272 W/m² -
1788382461 32.22° C 67% 1017.6 hPa 0 mm - 300 W/m² -
1788381856 32.78° C 65% 1017.8 hPa 0 mm - 340 W/m² -
1788381253 32.78° C 64% 1017.6 hPa 0 mm - 367 W/m² -
1788380648 32.78° C 66% 1017.8 hPa 0 mm - 315 W/m² -
1788380045 32.22° C 66% 1017.9 hPa 0 mm - 228 W/m² -
1788379441 32.22° C 65% 1017.8 hPa 0 mm - 95 W/m² -
1788378835 32.22° C 66% 1017.9 hPa 0 mm - 99 W/m² -
1788378236 32.78° C 67% 1018.1 hPa 0 mm - 115 W/m² -
1788377633 33.89° C 65% 1018.1 hPa 0 mm - 357 W/m² -
1788377030 33.89° C 64% 1017.8 hPa 0 mm - 118 W/m² -
1788376426 33.89° C 65% 1018 hPa 0 mm - 165 W/m² -

* Rain latest hour (hover to see other rain measurements)
** Current wind speed in m/s (hover to see current wind gust speed)